Time;durP1;ratioP1;P1;durP2;ratioP2;P2;SDS_P1;SDS_P2;PMS_P1;PMS_P2;Temp;Humidity;BMP_temperature;BMP_pressure;BME280_temperature;BME280_humidity;BME280_pressure;Samples;Min_cycle;Max_cycle;Signal;HPM_P1;HPM_P2
2023/06/04 00:00:05;;;;;;;0.70;0.70;;;;;;;21.70;49.95;102111.03;5006411;28;20504;-55
2023/06/04 00:02:30;;;;;;;2.50;0.80;;;;;;;21.70;49.83;102113.72;5012746;28;20033;-55
2023/06/04 00:04:56;;;;;;;0.60;0.60;;;;;;;21.69;49.77;102107.47;5008986;28;20112;-55
2023/06/04 00:07:21;;;;;;;0.75;0.75;;;;;;;21.68;49.60;102100.31;5007612;28;20026;-55
2023/06/04 00:09:47;;;;;;;1.17;0.82;;;;;;;21.68;49.90;102100.31;5006415;28;20034;-56
2023/06/04 00:12:13;;;;;;;0.63;0.63;;;;;;;21.67;49.79;102096.75;5008346;28;20029;-55
2023/06/04 00:14:38;;;;;;;1.08;0.93;;;;;;;21.67;49.94;102096.75;5006862;28;20473;-55
2023/06/04 00:17:04;;;;;;;0.60;0.60;;;;;;;21.67;49.81;102101.31;5007218;28;20117;-55
2023/06/04 00:19:30;;;;;;;0.80;0.80;;;;;;;21.66;49.52;102091.47;5006398;28;20373;-55
2023/06/04 00:21:55;;;;;;;0.70;0.70;;;;;;;21.66;49.96;102092.31;5008759;28;20034;-55
2023/06/04 00:24:20;;;;;;;0.95;0.57;;;;;;;21.66;49.85;102091.47;5006750;28;20030;-56
2023/06/04 00:26:46;;;;;;;1.13;0.85;;;;;;;21.65;49.30;102084.34;5007545;28;20033;-55
2023/06/04 00:29:11;;;;;;;0.55;0.55;;;;;;;21.64;49.83;102083.47;5006221;28;20118;-55
2023/06/04 00:31:37;;;;;;;0.68;0.65;;;;;;;21.64;49.43;102096.16;5006416;28;20477;-56
2023/06/04 00:34:05;;;;;;;1.20;0.75;;;;;;;21.63;49.23;102092.63;5008308;28;20439;-56
2023/06/04 00:36:31;;;;;;;1.75;0.77;;;;;;;21.64;49.62;102098.88;5007779;28;20046;-56
2023/06/04 00:38:56;;;;;;;0.68;0.60;;;;;;;21.64;49.73;102093.47;5006350;28;20439;-55
2023/06/04 00:41:21;;;;;;;0.82;0.80;;;;;;;21.63;49.69;102089.06;5006882;28;20053;-55
2023/06/04 00:43:55;;;;;;;0.50;0.50;;;;;;;21.62;49.73;102093.59;5007692;28;20041;-55
2023/06/04 00:46:21;;;;;;;1.08;0.82;;;;;;;21.62;49.41;102084.63;5006879;28;20037;-55
2023/06/04 00:48:46;;;;;;;1.40;0.60;;;;;;;21.60;49.75;102083.91;5007865;28;20503;-55
2023/06/04 00:51:12;;;;;;;1.58;0.90;;;;;;;21.61;49.78;102085.59;5011211;28;20025;-55
2023/06/04 00:53:39;;;;;;;0.63;0.63;;;;;;;21.62;49.33;102090.03;5015297;28;20052;-56
2023/06/04 00:56:05;;;;;;;0.60;0.60;;;;;;;21.59;49.30;102087.59;5017067;28;20025;-56
2023/06/04 00:58:31;;;;;;;1.58;0.90;;;;;;;21.59;49.22;102084.88;5010657;28;20090;-56
2023/06/04 01:01:02;;;;;;;1.13;0.82;;;;;;;21.58;49.41;102084.03;5014086;28;20052;-55
2023/06/04 01:03:31;;;;;;;0.80;0.80;;;;;;;21.58;49.53;102085.91;5010200;28;20476;-56
2023/06/04 01:06:32;;;;;;;1.00;0.77;;;;;;;21.57;49.08;102084.16;5009976;28;20025;-56
2023/06/04 01:08:58;;;;;;;0.55;0.55;;;;;;;21.58;49.34;102088.59;4989108;28;20049;-55
2023/06/04 01:11:35;;;;;;;0.70;0.70;;;;;;;21.58;49.12;102086.75;5010685;28;20034;-55
2023/06/04 01:14:08;;;;;;;1.42;0.70;;;;;;;21.56;49.46;102091.44;5010329;28;20040;-55
2023/06/04 01:16:40;;;;;;;0.95;0.85;;;;;;;21.57;49.54;102095.88;5010381;28;20460;-55
2023/06/04 01:19:30;;;;;;;1.20;0.90;;;;;;;21.56;49.04;102094.16;5010452;28;20452;-55
2023/06/04 01:22:04;;;;;;;2.38;0.75;;;;;;;21.57;49.02;102095.00;4993471;28;20511;-55
2023/06/04 01:24:36;;;;;;;0.60;0.60;;;;;;;21.55;49.03;102105.13;5010107;28;20034;-56
2023/06/04 01:27:03;;;;;;;0.70;0.70;;;;;;;21.54;49.42;102104.28;5011496;28;20029;-56
2023/06/04 01:29:29;;;;;;;0.63;0.63;;;;;;;21.55;49.31;102100.59;5010687;28;20041;-55
2023/06/04 01:31:56;;;;;;;0.60;0.60;;;;;;;21.54;49.09;102095.31;5009813;28;20029;-55
2023/06/04 01:34:21;;;;;;;0.82;0.70;;;;;;;21.54;48.83;102095.31;5009824;28;20046;-55
2023/06/04 01:36:47;;;;;;;0.68;0.68;;;;;;;21.53;49.22;102094.44;5010131;28;20026;-55
2023/06/04 01:39:12;;;;;;;1.20;0.70;;;;;;;21.54;48.81;102095.31;5010398;28;20523;-56
2023/06/04 01:41:38;;;;;;;0.70;0.70;;;;;;;21.53;49.14;102093.56;5008981;28;20053;-55
2023/06/04 01:44:03;;;;;;;1.02;0.82;;;;;;;21.53;49.26;102093.56;5009976;28;20064;-55
2023/06/04 01:46:28;;;;;;;0.90;0.90;;;;;;;21.53;49.22;102096.28;5009749;28;20029;-55
2023/06/04 01:48:54;;;;;;;0.70;0.70;;;;;;;21.52;48.55;102092.72;5010569;28;20029;-55
2023/06/04 01:51:19;;;;;;;0.60;0.60;;;;;;;21.52;49.20;102094.59;5011665;28;20030;-56
2023/06/04 01:53:45;;;;;;;1.30;0.63;;;;;;;21.51;49.20;102087.44;5009264;28;20493;-55
2023/06/04 01:56:11;;;;;;;0.60;0.60;;;;;;;21.51;48.71;102092.88;5009452;28;20116;-55
2023/06/04 01:58:36;;;;;;;0.50;0.50;;;;;;;21.51;48.72;102098.28;5010252;28;20042;-55
2023/06/04 02:01:03;;;;;;;0.57;0.52;;;;;;;21.51;48.88;102099.13;5009096;28;20065;-55
2023/06/04 02:03:32;;;;;;;1.00;0.70;;;;;;;21.50;49.14;102093.88;5008915;28;20034;-56
2023/06/04 02:05:57;;;;;;;0.70;0.60;;;;;;;21.48;49.07;102092.16;5013002;28;20253;-55
2023/06/04 02:08:25;;;;;;;0.70;0.70;;;;;;;21.50;49.20;102102.00;5010042;28;20150;-55
2023/06/04 02:10:50;;;;;;;1.33;0.70;;;;;;;21.49;49.10;102098.41;5008920;28;20046;-56
2023/06/04 02:13:16;;;;;;;1.23;0.80;;;;;;;21.50;49.00;102096.59;5009309;28;20379;-55
2023/06/04 02:15:41;;;;;;;0.50;0.50;;;;;;;21.49;48.82;102093.00;5009631;28;20034;-56
2023/06/04 02:18:16;;;;;;;0.65;0.65;;;;;;;21.48;48.66;102091.31;5008906;28;20033;-56
2023/06/04 02:20:43;;;;;;;0.98;0.63;;;;;;;21.47;48.72;102090.41;5008577;28;20037;-55
2023/06/04 02:23:09;;;;;;;1.63;0.95;;;;;;;21.47;48.76;102085.00;5007194;28;20037;-55
2023/06/04 02:25:34;;;;;;;0.93;0.90;;;;;;;21.46;48.40;102086.00;5014236;28;20029;-55
2023/06/04 02:27:59;;;;;;;0.60;0.60;;;;;;;21.46;48.53;102090.59;5008648;28;20120;-55
2023/06/04 02:30:25;;;;;;;1.15;0.75;;;;;;;21.45;48.92;102089.72;5008360;28;20057;-55
2023/06/04 02:32:50;;;;;;;0.98;0.80;;;;;;;21.44;48.49;102088.00;5008758;28;20089;-55
2023/06/04 02:35:17;;;;;;;0.73;0.63;;;;;;;21.45;48.31;102092.41;5009008;28;20401;-55
2023/06/04 02:37:43;;;;;;;0.60;0.60;;;;;;;21.44;48.29;102088.00;5008001;28;20045;-56
2023/06/04 02:40:09;;;;;;;1.08;0.60;;;;;;;21.44;48.31;102093.44;5008667;28;20129;-55
2023/06/04 02:42:34;;;;;;;0.68;0.68;;;;;;;21.43;48.66;102091.66;5009100;28;20437;-55
2023/06/04 02:45:00;;;;;;;0.88;0.80;;;;;;;21.44;48.71;102098.84;5011685;28;20050;-55
2023/06/04 02:47:25;;;;;;;0.73;0.65;;;;;;;21.43;48.17;102097.09;5007127;28;20092;-55
2023/06/04 02:49:50;;;;;;;0.60;0.60;;;;;;;21.43;48.30;102098.94;5009119;28;20030;-55
2023/06/04 02:52:16;;;;;;;0.75;0.75;;;;;;;21.43;48.62;102098.94;5015590;28;20029;-55
2023/06/04 02:54:41;;;;;;;0.68;0.63;;;;;;;21.43;48.11;102105.22;5008266;28;20026;-55
2023/06/04 02:57:08;;;;;;;0.55;0.55;;;;;;;21.41;48.43;102093.66;5009008;28;20084;-55
2023/06/04 02:59:33;;;;;;;0.73;0.60;;;;;;;21.41;48.46;102095.53;5012879;28;20037;-56
2023/06/04 03:01:59;;;;;;;0.50;0.50;;;;;;;21.41;48.13;102099.06;5009196;28;20479;-55
2023/06/04 03:04:24;;;;;;;0.65;0.60;;;;;;;21.41;48.03;102093.66;5007955;28;20104;-55
2023/06/04 03:06:57;;;;;;;0.75;0.63;;;;;;;21.39;48.56;102092.94;5008506;28;20045;-55
2023/06/04 03:09:22;;;;;;;1.35;0.73;;;;;;;21.40;48.20;102101.91;5008733;28;20029;-55
2023/06/04 03:11:48;;;;;;;0.80;0.68;;;;;;;21.40;48.10;102101.91;5006631;28;20363;-55
2023/06/04 03:14:13;;;;;;;0.80;0.80;;;;;;;21.40;48.21;102101.91;5007829;28;20037;-56
2023/06/04 03:16:39;;;;;;;0.50;0.50;;;;;;;21.38;47.92;102096.66;5008408;28;20046;-55
2023/06/04 03:19:05;;;;;;;0.50;0.47;;;;;;;21.38;48.37;102099.38;5008270;28;20037;-55
2023/06/04 03:21:30;;;;;;;0.50;0.50;;;;;;;21.37;47.72;102092.22;5006489;28;20235;-56
2023/06/04 03:23:56;;;;;;;0.70;0.70;;;;;;;21.37;48.03;102086.81;5010941;28;20044;-56
2023/06/04 03:26:21;;;;;;;0.82;0.60;;;;;;;21.37;47.96;102091.38;5010474;28;20092;-55
2023/06/04 03:28:46;;;;;;;0.60;0.60;;;;;;;21.37;48.35;102094.09;5008065;28;20069;-55
2023/06/04 03:31:12;;;;;;;0.73;0.73;;;;;;;21.36;47.73;102085.13;5006954;28;20476;-55
2023/06/04 03:33:37;;;;;;;0.63;0.63;;;;;;;21.36;47.99;102081.53;5007580;28;20391;-55
2023/06/04 03:36:03;;;;;;;0.70;0.70;;;;;;;21.37;48.15;102092.22;5007512;28;20034;-56
2023/06/04 03:38:28;;;;;;;1.02;0.60;;;;;;;21.36;48.03;102095.94;5007938;28;20042;-56
2023/06/04 03:40:54;;;;;;;0.73;0.60;;;;;;;21.35;47.78;102093.38;5009686;28;20077;-56
2023/06/04 03:43:20;;;;;;;1.10;0.60;;;;;;;21.35;47.63;102094.22;5006954;28;20465;-55
2023/06/04 03:45:45;;;;;;;0.77;0.60;;;;;;;21.35;47.92;102096.94;5006352;28;20038;-55
2023/06/04 03:48:11;;;;;;;1.20;0.52;;;;;;;21.35;47.62;102094.22;5023547;28;20495;-55
2023/06/04 03:50:36;;;;;;;1.02;0.70;;;;;;;21.33;48.10;102096.22;5007194;28;20046;-55
2023/06/04 03:53:04;;;;;;;0.80;0.80;;;;;;;21.32;47.75;102094.50;5007584;28;20061;-55
2023/06/04 03:55:31;;;;;;;0.65;0.65;;;;;;;21.33;47.42;102096.22;5008859;28;20061;-56
2023/06/04 03:57:57;;;;;;;1.98;0.95;;;;;;;21.32;47.67;102091.78;5006697;28;20125;-55
2023/06/04 04:00:22;;;;;;;1.55;0.70;;;;;;;21.32;47.43;102093.63;5008324;28;20121;-55
2023/06/04 04:02:48;;;;;;;0.77;0.77;;;;;;;21.33;47.44;102089.94;5007125;28;20377;-55
2023/06/04 04:05:14;;;;;;;0.80;0.63;;;;;;;21.32;47.73;102094.50;5007497;28;20042;-55
2023/06/04 04:07:40;;;;;;;0.80;0.70;;;;;;;21.30;47.81;102088.34;5006489;28;20044;-55
2023/06/04 04:10:05;;;;;;;0.60;0.60;;;;;;;21.31;47.44;102097.34;5003252;28;20038;-55
2023/06/04 04:12:31;;;;;;;0.68;0.68;;;;;;;21.30;47.71;102099.19;5007739;28;20118;-55
2023/06/04 04:14:56;;;;;;;0.55;0.55;;;;;;;21.31;47.52;102098.22;5006675;28;20042;-55
2023/06/04 04:17:21;;;;;;;0.75;0.70;;;;;;;21.29;47.27;102101.06;5010956;28;20484;-55
2023/06/04 04:19:47;;;;;;;0.43;0.43;;;;;;;21.31;47.44;102097.34;5007651;28;20061;-56
2023/06/04 04:22:12;;;;;;;0.77;0.77;;;;;;;21.29;47.76;102101.06;5008234;28;20160;-55
2023/06/04 04:24:39;;;;;;;1.65;0.60;;;;;;;21.29;47.67;102100.19;5008885;28;20045;-55
2023/06/04 04:27:05;;;;;;;0.70;0.70;;;;;;;21.28;47.34;102098.47;5010905;28;20040;-55
2023/06/04 04:29:34;;;;;;;0.60;0.60;;;;;;;21.27;47.36;102100.34;5006250;28;20033;-55
2023/06/04 04:32:00;;;;;;;0.70;0.70;;;;;;;21.28;47.54;102098.47;5021673;28;20057;-55
2023/06/04 04:34:26;;;;;;;0.80;0.80;;;;;;;21.27;47.34;102094.06;5005828;28;20361;-55
2023/06/04 04:36:52;;;;;;;0.60;0.60;;;;;;;21.27;47.70;102099.47;5007247;28;20462;-55
2023/06/04 04:39:24;;;;;;;1.35;0.75;;;;;;;21.27;47.63;102097.63;5006942;28;20113;-55
2023/06/04 04:41:51;;;;;;;0.50;0.50;;;;;;;21.27;47.82;102096.78;5005637;28;20050;-55
2023/06/04 04:44:16;;;;;;;0.75;0.75;;;;;;;21.26;47.60;102095.03;5006981;28;20053;-55
2023/06/04 04:46:42;;;;;;;0.77;0.68;;;;;;;21.25;47.26;102096.91;5000780;28;20424;-55
2023/06/04 04:49:07;;;;;;;0.60;0.60;;;;;;;21.26;47.17;102103.16;5006589;28;20499;-55
2023/06/04 04:51:33;;;;;;;0.68;0.68;;;;;;;21.25;47.38;102107.75;5008042;28;20385;-55
2023/06/04 04:54:02;;;;;;;0.60;0.60;;;;;;;21.26;47.60;102108.59;5006361;28;20085;-55
2023/06/04 04:56:28;;;;;;;0.70;0.70;;;;;;;21.25;47.25;102098.75;5006588;28;20029;-56
2023/06/04 04:58:55;;;;;;;0.70;0.70;;;;;;;21.25;47.15;102109.59;5013224;28;20042;-56
2023/06/04 05:01:20;;;;;;;0.70;0.70;;;;;;;21.24;47.54;102100.59;5007225;28;20040;-55
2023/06/04 05:03:46;;;;;;;0.68;0.68;;;;;;;21.24;47.62;102114.13;5006053;28;20038;-55
2023/06/04 05:06:11;;;;;;;1.65;0.70;;;;;;;21.24;47.60;102107.88;5006699;28;20064;-55
2023/06/04 05:08:36;;;;;;;0.57;0.57;;;;;;;21.24;47.51;102114.13;5006655;28;20087;-55
2023/06/04 05:11:02;;;;;;;0.70;0.70;;;;;;;21.23;47.02;102111.59;5009506;28;20029;-55
2023/06/04 05:13:27;;;;;;;0.60;0.60;;;;;;;21.23;47.54;102112.44;5008225;28;20037;-55
2023/06/04 05:15:53;;;;;;;0.82;0.70;;;;;;;21.23;47.25;102111.59;5006815;28;20026;-55
2023/06/04 05:18:28;;;;;;;1.25;0.73;;;;;;;21.22;47.19;102109.88;5006552;28;20033;-55
2023/06/04 05:20:57;;;;;;;0.65;0.55;;;;;;;21.21;47.50;102108.13;5006992;28;20120;-56
2023/06/04 05:23:23;;;;;;;0.70;0.70;;;;;;;21.21;47.19;102119.84;5007664;28;20116;-55
2023/06/04 05:25:49;;;;;;;0.65;0.50;;;;;;;21.22;47.54;102120.69;5007318;28;20403;-55
2023/06/04 05:28:15;;;;;;;0.55;0.55;;;;;;;21.21;47.50;102117.13;5006646;28;20464;-55
2023/06/04 05:30:41;;;;;;;0.60;0.60;;;;;;;21.22;47.52;102115.28;5006603;28;20531;-56
2023/06/04 05:33:11;;;;;;;0.70;0.70;;;;;;;21.22;47.52;102120.69;5006992;28;20050;-55
2023/06/04 05:35:41;;;;;;;1.90;0.67;;;;;;;21.22;47.63;102120.69;5007630;28;20352;-55
2023/06/04 05:38:06;;;;;;;0.57;0.57;;;;;;;21.21;47.56;102116.25;5010143;28;20042;-55
2023/06/04 05:40:32;;;;;;;0.70;0.60;;;;;;;21.22;47.23;102120.69;5010841;28;20089;-55
2023/06/04 05:42:57;;;;;;;1.20;0.55;;;;;;;21.21;47.24;102121.69;5009195;28;20531;-55
2023/06/04 05:45:23;;;;;;;0.50;0.50;;;;;;;21.21;47.59;102127.09;5009739;28;20058;-55
2023/06/04 05:47:48;;;;;;;0.50;0.43;;;;;;;21.21;47.26;102124.38;5010068;28;20038;-55
2023/06/04 05:50:13;;;;;;;0.60;0.60;;;;;;;21.20;47.46;102123.53;5014131;28;20164;-56
2023/06/04 05:52:39;;;;;;;0.60;0.60;;;;;;;21.21;47.22;102116.25;5009308;28;20045;-55
2023/06/04 05:55:07;;;;;;;0.40;0.40;;;;;;;21.20;47.35;102111.84;5009446;28;20038;-55
2023/06/04 05:57:32;;;;;;;0.50;0.50;;;;;;;21.20;47.49;102122.69;5009612;28;20048;-55
2023/06/04 05:59:58;;;;;;;0.50;0.50;;;;;;;21.19;47.03;102116.41;5008451;28;20034;-55
2023/06/04 06:02:23;;;;;;;1.02;0.85;;;;;;;21.20;47.43;102122.69;5008746;28;20388;-55
2023/06/04 06:04:49;;;;;;;0.63;0.60;;;;;;;21.19;47.63;102120.97;5009190;28;20121;-55
2023/06/04 06:07:14;;;;;;;0.50;0.50;;;;;;;21.19;47.26;102124.56;5010252;28;20113;-55
2023/06/04 06:09:39;;;;;;;0.65;0.65;;;;;;;21.19;47.28;102120.97;5010030;28;20101;-55
2023/06/04 06:12:05;;;;;;;1.58;0.70;;;;;;;21.19;47.76;102123.66;5011349;28;20034;-55
2023/06/04 06:14:30;;;;;;;0.60;0.60;;;;;;;21.19;47.57;102124.56;5015342;28;20040;-55
2023/06/04 06:16:56;;;;;;;1.38;0.60;;;;;;;21.19;47.60;102120.97;5011036;28;20436;-55
2023/06/04 06:19:21;;;;;;;0.65;0.60;;;;;;;21.18;47.63;102125.53;5008359;28;20385;-55
2023/06/04 06:21:47;;;;;;;0.60;0.60;;;;;;;21.18;47.61;102130.09;5011966;28;20361;-56
2023/06/04 06:24:12;;;;;;;0.80;0.70;;;;;;;21.18;47.26;102124.69;5009340;28;20035;-55
2023/06/04 06:26:37;;;;;;;0.40;0.40;;;;;;;21.18;47.29;102125.53;5008551;28;20034;-55
2023/06/04 06:29:03;;;;;;;0.50;0.50;;;;;;;21.19;47.45;102129.97;5008719;28;20034;-55
2023/06/04 06:31:28;;;;;;;2.03;0.70;;;;;;;21.18;47.21;102130.09;5004014;28;20092;-56
2023/06/04 06:33:53;;;;;;;1.27;0.60;;;;;;;21.18;47.40;102130.09;5009729;28;20031;-55
2023/06/04 06:36:19;;;;;;;0.50;0.50;;;;;;;21.18;47.44;102132.81;5008987;28;20547;-55
2023/06/04 06:38:46;;;;;;;0.43;0.43;;;;;;;21.18;47.64;102135.50;5009356;28;20034;-55
2023/06/04 06:41:11;;;;;;;0.88;0.60;;;;;;;21.17;47.61;102137.38;5015368;28;20097;-55
2023/06/04 06:43:37;;;;;;;0.75;0.52;;;;;;;21.17;47.61;102139.19;5009874;28;20045;-55
2023/06/04 06:46:02;;;;;;;0.50;0.50;;;;;;;21.16;47.24;102135.66;5008703;28;20079;-55
2023/06/04 06:48:28;;;;;;;0.32;0.32;;;;;;;21.17;47.30;102134.66;5008550;28;20103;-55
2023/06/04 06:50:54;;;;;;;0.75;0.75;;;;;;;21.17;47.58;102139.19;5008892;28;20032;-56
2023/06/04 06:53:20;;;;;;;0.60;0.60;;;;;;;21.17;47.77;102142.78;5009679;28;20491;-56
2023/06/04 06:55:45;;;;;;;0.93;0.50;;;;;;;21.17;47.58;102150.91;5008361;28;20038;-55
2023/06/04 06:58:10;;;;;;;0.43;0.43;;;;;;;21.17;47.66;102140.09;5008440;28;20045;-56
2023/06/04 07:00:36;;;;;;;0.80;0.80;;;;;;;21.18;47.64;102140.94;5012058;28;20037;-56
2023/06/04 07:03:01;;;;;;;0.60;0.60;;;;;;;21.18;47.36;102140.94;5003544;28;20030;-56
2023/06/04 07:05:26;;;;;;;0.50;0.50;;;;;;;21.18;47.32;102146.34;5014408;28;20033;-56
2023/06/04 07:07:52;;;;;;;0.70;0.70;;;;;;;21.17;47.70;102148.22;5009948;28;20030;-55
2023/06/04 07:10:17;;;;;;;0.50;0.50;;;;;;;21.16;47.24;102153.75;5011837;28;20030;-56
2023/06/04 07:12:43;;;;;;;0.40;0.40;;;;;;;21.18;47.76;102157.19;5007166;28;20548;-56
2023/06/04 07:15:09;;;;;;;0.75;0.70;;;;;;;21.17;47.69;102155.44;5006433;28;20092;-55
2023/06/04 07:17:34;;;;;;;0.57;0.57;;;;;;;21.17;47.35;102150.91;5013137;28;20026;-55
2023/06/04 07:20:00;;;;;;;0.57;0.57;;;;;;;21.18;47.77;102157.19;5008219;28;20026;-55
2023/06/04 07:22:25;;;;;;;0.77;0.77;;;;;;;21.17;47.21;102152.75;5009044;28;20061;-56
2023/06/04 07:24:51;;;;;;;0.40;0.40;;;;;;;21.17;47.78;102155.44;5010281;28;20034;-55
2023/06/04 07:27:16;;;;;;;0.50;0.50;;;;;;;21.17;47.32;102153.63;5005367;28;20132;-56
2023/06/04 07:29:45;;;;;;;0.60;0.60;;;;;;;21.17;47.52;102160.88;5008141;28;20129;-55
2023/06/04 07:32:10;;;;;;;0.50;0.50;;;;;;;21.18;47.28;102159.88;5007363;28;20037;-55
2023/06/04 07:34:38;;;;;;;0.30;0.30;;;;;;;21.17;47.38;102158.16;5007555;28;20038;-56
2023/06/04 07:37:03;;;;;;;0.60;0.60;;;;;;;21.17;47.28;102155.44;5007879;28;20034;-55
2023/06/04 07:39:29;;;;;;;0.52;0.52;;;;;;;21.17;47.72;102156.34;5008688;28;20038;-55
2023/06/04 07:41:54;;;;;;;0.50;0.50;;;;;;;21.17;47.48;102153.63;5008124;28;20085;-55
2023/06/04 07:44:21;;;;;;;0.70;0.70;;;;;;;21.17;47.34;102150.03;5007626;28;20100;-55
2023/06/04 07:46:47;;;;;;;0.55;0.55;;;;;;;21.18;47.57;102152.63;5007775;28;20038;-55
2023/06/04 07:49:12;;;;;;;0.63;0.45;;;;;;;21.18;47.85;102159.88;5006785;28;20498;-56
2023/06/04 07:51:37;;;;;;;0.80;0.63;;;;;;;21.19;47.50;102161.59;5007050;28;20044;-55
2023/06/04 07:54:03;;;;;;;0.55;0.52;;;;;;;21.19;47.78;102156.16;5007019;28;20033;-55
2023/06/04 07:56:29;;;;;;;0.82;0.70;;;;;;;21.19;47.80;102158.88;5007302;28;20045;-55
2023/06/04 07:58:55;;;;;;;0.40;0.40;;;;;;;21.19;47.59;102161.59;5038771;28;20053;-55
2023/06/04 08:01:21;;;;;;;0.50;0.50;;;;;;;21.19;47.47;102153.47;5008352;28;20056;-56
2023/06/04 08:03:47;;;;;;;0.60;0.60;;;;;;;21.18;47.47;102157.19;5009088;28;20518;-55
2023/06/04 08:06:14;;;;;;;0.40;0.40;;;;;;;21.18;47.56;102152.63;5007277;28;20112;-55
2023/06/04 08:08:45;;;;;;;0.43;0.43;;;;;;;21.18;47.95;102157.19;5006154;28;20034;-56
2023/06/04 08:11:10;;;;;;;0.82;0.82;;;;;;;21.19;47.81;102157.06;5006813;28;20030;-55
2023/06/04 08:13:36;;;;;;;0.52;0.52;;;;;;;21.20;47.84;102155.19;5007260;28;20030;-56
2023/06/04 08:16:01;;;;;;;0.50;0.50;;;;;;;21.19;47.44;102157.06;5007341;28;20030;-55
2023/06/04 08:18:26;;;;;;;0.35;0.35;;;;;;;21.20;47.69;102155.19;5006595;28;20061;-55
2023/06/04 08:20:52;;;;;;;0.55;0.55;;;;;;;21.19;47.68;102151.63;5007946;28;20088;-56
2023/06/04 08:23:17;;;;;;;0.75;0.52;;;;;;;21.20;47.88;102155.19;5010020;28;20026;-55
2023/06/04 08:25:43;;;;;;;0.40;0.40;;;;;;;21.20;47.76;102157.91;5011509;28;20033;-55
2023/06/04 08:28:08;;;;;;;0.50;0.50;;;;;;;21.20;47.97;102166.03;5008058;28;20034;-56
2023/06/04 08:30:35;;;;;;;0.65;0.65;;;;;;;21.20;47.89;102157.91;5006168;28;20026;-55
2023/06/04 08:33:01;;;;;;;0.68;0.60;;;;;;;21.20;47.57;102157.91;5006511;28;20026;-56
2023/06/04 08:35:26;;;;;;;0.70;0.70;;;;;;;21.20;47.95;102163.31;5007501;28;20030;-55
2023/06/04 08:37:52;;;;;;;0.50;0.50;;;;;;;21.21;47.71;102163.19;5010642;28;20041;-55
2023/06/04 08:40:17;;;;;;;0.55;0.55;;;;;;;21.20;48.08;102157.91;5006038;28;20118;-55
2023/06/04 08:42:46;;;;;;;0.40;0.40;;;;;;;21.20;47.71;102156.03;5007208;28;20078;-55
2023/06/04 08:45:13;;;;;;;0.60;0.60;;;;;;;21.20;47.98;102161.47;5006384;28;20033;-55
2023/06/04 08:47:49;;;;;;;0.57;0.57;;;;;;;21.22;47.69;102164.03;5011937;28;20065;-56
2023/06/04 08:50:22;;;;;;;0.50;0.50;;;;;;;21.21;48.00;102156.88;5006576;28;20559;-55
2023/06/04 08:52:52;;;;;;;0.50;0.50;;;;;;;21.21;47.62;102159.59;5007079;28;20022;-55
2023/06/04 08:55:18;;;;;;;1.42;0.43;;;;;;;21.21;47.63;102156.88;5005932;28;20482;-55
2023/06/04 08:57:43;;;;;;;0.73;0.60;;;;;;;21.21;47.73;102167.72;5009008;28;20038;-55
2023/06/04 09:00:09;;;;;;;0.50;0.50;;;;;;;21.21;47.84;102167.72;5010049;28;20065;-56
2023/06/04 09:02:37;;;;;;;0.40;0.40;;;;;;;21.21;48.20;102167.72;5006743;28;20040;-55
2023/06/04 09:05:04;;;;;;;0.50;0.50;;;;;;;21.22;48.05;102164.03;5010123;28;20480;-55
2023/06/04 09:07:31;;;;;;;0.95;0.50;;;;;;;21.21;47.80;102170.44;5006967;28;20029;-56
2023/06/04 09:09:56;;;;;;;0.30;0.30;;;;;;;21.21;47.84;102167.72;5007445;28;20038;-55
2023/06/04 09:12:24;;;;;;;0.45;0.45;;;;;;;21.23;47.86;102173.91;5011021;28;20081;-55
2023/06/04 09:14:52;;;;;;;0.50;0.50;;;;;;;21.22;48.10;102173.00;5009913;28;20034;-55
2023/06/04 09:17:23;;;;;;;0.40;0.40;;;;;;;21.23;47.82;102172.03;5009184;28;20026;-56
2023/06/04 09:19:48;;;;;;;0.63;0.50;;;;;;;21.24;47.86;102172.88;5015367;28;20518;-55
2023/06/04 09:22:14;;;;;;;0.40;0.40;;;;;;;21.23;47.81;102173.91;5012750;28;20061;-55
2023/06/04 09:24:47;;;;;;;0.50;0.50;;;;;;;21.23;47.99;102171.19;5010240;28;20034;-55
2023/06/04 09:27:17;;;;;;;0.75;0.70;;;;;;;21.24;48.24;102167.47;5016283;28;20091;-55
2023/06/04 09:29:53;;;;;;;0.70;0.70;;;;;;;21.25;48.18;102169.19;5009957;28;20040;-56
2023/06/04 09:32:23;;;;;;;0.50;0.50;;;;;;;21.25;47.86;102169.19;5010273;28;20377;-56
2023/06/04 09:34:48;;;;;;;0.40;0.40;;;;;;;21.24;48.16;102171.03;5006786;28;20073;-56
2023/06/04 09:37:18;;;;;;;0.40;0.40;;;;;;;21.25;47.80;102174.63;5009509;28;20125;-56
2023/06/04 09:39:53;;;;;;;0.50;0.50;;;;;;;21.25;47.85;102171.91;5007570;28;20046;-55
2023/06/04 09:42:18;;;;;;;0.50;0.50;;;;;;;21.26;47.99;102176.31;5014581;28;20140;-55
2023/06/04 09:44:45;;;;;;;0.40;0.40;;;;;;;21.25;47.87;102170.03;5009958;28;20431;-56
2023/06/04 09:47:11;;;;;;;0.50;0.50;;;;;;;21.26;48.12;102170.91;5010583;28;20040;-55
2023/06/04 09:49:46;;;;;;;0.55;0.55;;;;;;;21.27;47.84;102167.22;5009274;28;20034;-56
2023/06/04 09:52:13;;;;;;;0.50;0.50;;;;;;;21.26;48.39;102165.47;5010050;28;20541;-56
2023/06/04 09:54:41;;;;;;;0.40;0.40;;;;;;;21.26;47.71;102174.44;5012385;28;20033;-55
2023/06/04 09:57:17;;;;;;;0.40;0.40;;;;;;;21.26;47.99;102160.91;5016698;28;20029;-56
2023/06/04 09:59:49;;;;;;;0.52;0.52;;;;;;;21.27;48.10;102159.94;5012279;28;20824;-55
2023/06/04 10:02:18;;;;;;;;;;;;;;;21.39;47.88;102157.97;5009138;28;20476;-55
2023/06/04 10:04:48;;;;;;;0.50;0.50;;;;;;;21.31;47.96;102163.22;5009205;28;19914;-55
2023/06/04 10:07:15;;;;;;;0.40;0.40;;;;;;;21.31;48.03;102160.53;5010328;28;20472;-56
2023/06/04 10:09:45;;;;;;;0.50;0.50;;;;;;;21.27;48.31;102162.63;5008800;28;20034;-56
2023/06/04 10:12:15;;;;;;;0.40;0.40;;;;;;;21.30;48.33;102161.50;5009447;28;20420;-56
2023/06/04 10:15:09;;;;;;;0.40;0.40;;;;;;;21.34;48.04;102156.66;5008470;28;20070;-55
2023/06/04 10:17:35;;;;;;;0.35;0.35;;;;;;;21.31;47.87;102160.53;5009517;28;20509;-56
2023/06/04 10:20:05;;;;;;;0.50;0.50;;;;;;;21.30;48.33;102166.91;5009386;28;20112;-55
2023/06/04 10:22:31;;;;;;;0.50;0.50;;;;;;;21.31;48.38;102155.09;5012874;28;20096;-55
2023/06/04 10:24:58;;;;;;;0.47;0.47;;;;;;;21.31;47.78;102163.22;5012160;28;20030;-56
2023/06/04 10:27:24;;;;;;;0.77;0.57;;;;;;;21.31;47.89;102168.66;5008785;28;20034;-56
2023/06/04 10:29:52;;;;;;;0.40;0.40;;;;;;;21.31;48.42;102160.53;5011721;28;20038;-56
2023/06/04 10:32:17;;;;;;;0.52;0.52;;;;;;;21.32;48.16;102155.94;5009459;28;20036;-56
2023/06/04 10:34:43;;;;;;;0.40;0.40;;;;;;;21.33;47.99;102160.38;5009802;28;20025;-55
2023/06/04 10:37:22;;;;;;;0.50;0.50;;;;;;;21.34;48.10;102159.38;5008982;28;20056;-56
2023/06/04 10:39:54;;;;;;;0.68;0.57;;;;;;;21.32;48.59;102159.50;5009001;28;20467;-55
2023/06/04 10:42:21;;;;;;;0.50;0.50;;;;;;;21.33;48.42;102155.81;5008901;28;20610;-56
2023/06/04 10:44:51;;;;;;;0.32;0.32;;;;;;;21.33;47.92;102161.22;5008088;28;20391;-56
2023/06/04 10:47:26;;;;;;;0.40;0.40;;;;;;;21.35;48.09;102152.97;5008399;28;20483;-56
2023/06/04 10:49:55;;;;;;;0.50;0.50;;;;;;;21.34;48.34;102159.38;5007738;28;20034;-55
2023/06/04 10:52:23;;;;;;;0.50;0.50;;;;;;;21.34;48.56;102160.22;5012516;28;20057;-55
2023/06/04 10:54:49;;;;;;;0.60;0.60;;;;;;;21.36;48.58;102154.69;5006527;28;20452;-56
2023/06/04 10:57:16;;;;;;;0.47;0.40;;;;;;;21.35;48.09;102159.25;5008427;28;20038;-55
2023/06/04 10:59:54;;;;;;;0.50;0.50;;;;;;;21.37;48.35;102168.09;5007288;28;20061;-55
2023/06/04 11:02:19;;;;;;;0.70;0.70;;;;;;;21.38;48.27;102163.53;5009121;28;20030;-55
2023/06/04 11:04:46;;;;;;;0.60;0.57;;;;;;;21.37;48.50;102168.09;5006310;28;20494;-56
2023/06/04 11:07:11;;;;;;;1.30;0.60;;;;;;;21.39;48.63;102159.84;5007791;28;20040;-56
2023/06/04 11:09:47;;;;;;;0.60;0.60;;;;;;;21.38;48.23;102161.69;5008034;28;20033;-55
2023/06/04 11:12:12;;;;;;;0.50;0.50;;;;;;;21.39;48.47;102155.25;5004016;28;20030;-56
2023/06/04 11:14:37;;;;;;;0.93;0.70;;;;;;;21.39;48.24;102157.97;5007599;28;20038;-56
2023/06/04 11:17:11;;;;;;;0.47;0.47;;;;;;;21.39;48.44;102147.13;5007668;28;20069;-55
2023/06/04 11:19:37;;;;;;;0.40;0.40;;;;;;;21.40;48.55;102154.28;5011357;28;20038;-55
2023/06/04 11:22:03;;;;;;;0.60;0.60;;;;;;;21.41;48.63;102155.13;5010374;28;20368;-56